»·PEaware :: CGCMV CYXC-CYLW

CGCMV :: CYXC-CYLW

FLIGHT INFORMATION

Flight Status: Arrived
Operator: Unknown
More flights by this operator :: More flights under this callsign
Pilot: Sherman V. (22519)
Aircraft: BEECH AIRCRAFT BARON
(BE58)
More flights by this aircraft type
Origin: CYXC Cranbrook
Canada
Destination: CYLW Kelowna
Canada
More flights between these airports :: More routes between these airports
Route:
File this flight plan on PilotEdge
Remarks:
Altitude:
(Current/Filed)
12,000ft
Speed:
(Current/Filed)
160kts
Departed: 27-May-20 01:37 AM
Arrived: 27-May-20 02:36 AM
Distance/Time
Traveled:
141nm/0:58
Distance/Time
To Go:
Arrived

Flight Plot

Page will automatically refresh every two minutes.

Flight plan parsing failed; only flown route is shown


Map Options




Map Legend


Flown Route
Filed Route
Departure Airport
Arrival Airport
Navaid (VOR, NDB)
Fix

Horizontal Profiles

Position Reports

Time Latitude Longitude Heading Altitude Ground
Speed
27-May-20 01:32 49.613547 -115.785588 179 3038ft 0kts
27-May-20 01:33 49.613547 -115.785588 179 3038ft 0kts
27-May-20 01:34 49.613879 -115.785100 10 3036ft 16kts
27-May-20 01:35 49.617683 -115.782272 115 3011ft 4kts
27-May-20 01:36 49.592134 -115.779779 165 4023ft 109kts
27-May-20 01:37 49.583806 -115.807844 311 5618ft 92kts
27-May-20 01:38 49.602057 -115.841748 311 6840ft 111kts
27-May-20 01:39 49.620461 -115.880332 294 8101ft 112kts
27-May-20 01:40 49.628151 -115.927451 282 9234ft 114kts
27-May-20 01:41 49.633583 -115.975232 281 10281ft 113kts
27-May-20 01:42 49.638899 -116.023124 280 11220ft 115kts
27-May-20 01:43 49.644415 -116.073195 280 11974ft 128kts
27-May-20 01:44 49.650953 -116.133061 280 12127ft 153kts
27-May-20 01:45 49.658195 -116.199704 280 12069ft 159kts
27-May-20 01:46 49.665402 -116.266472 280 12054ft 154kts
27-May-20 01:47 49.672469 -116.332033 280 11931ft 153kts
27-May-20 01:48 49.679166 -116.394725 280 11924ft 143kts
27-May-20 01:49 49.685449 -116.453858 280 11929ft 136kts
27-May-20 01:50 49.691378 -116.510184 280 11956ft 130kts
27-May-20 01:51 49.697412 -116.567039 280 11986ft 146kts
27-May-20 01:52 49.704304 -116.632571 280 11988ft 159kts
27-May-20 01:53 49.711405 -116.700750 279 11960ft 161kts
27-May-20 01:54 49.718410 -116.768919 279 11957ft 160kts
27-May-20 01:55 49.725361 -116.836544 279 11958ft 158kts
27-May-20 01:56 49.732210 -116.903549 279 11960ft 156kts
27-May-20 01:57 49.738942 -116.969886 280 11959ft 155kts
27-May-20 01:58 49.745606 -117.035508 281 11963ft 154kts
27-May-20 01:59 49.752252 -117.101309 282 11958ft 154kts
27-May-20 02:00 49.758802 -117.166763 282 11977ft 153kts
27-May-20 02:01 49.765278 -117.231790 282 12006ft 152kts
27-May-20 02:02 49.771652 -117.296547 282 12035ft 152kts
27-May-20 02:03 49.778056 -117.361658 282 12061ft 153kts
27-May-20 02:04 49.784415 -117.427140 282 12062ft 155kts
27-May-20 02:05 49.790823 -117.493387 282 12062ft 155kts
27-May-20 02:06 49.797207 -117.559645 282 12063ft 156kts
27-May-20 02:07 49.803682 -117.626394 282 12058ft 157kts
27-May-20 02:08 49.810121 -117.694084 281 12096ft 160kts
27-May-20 02:09 49.816660 -117.763312 281 12066ft 163kts
27-May-20 02:10 49.823205 -117.832932 281 12061ft 164kts
27-May-20 02:11 49.829744 -117.902978 281 12062ft 164kts
27-May-20 02:12 49.836235 -117.973240 282 12104ft 162kts
27-May-20 02:13 49.842702 -118.043220 282 12083ft 164kts
27-May-20 02:14 49.849146 -118.113647 282 12079ft 165kts
27-May-20 02:15 49.855586 -118.184670 281 12025ft 167kts
27-May-20 02:16 49.861967 -118.255955 282 12022ft 167kts
27-May-20 02:17 49.868298 -118.326370 282 12020ft 166kts
27-May-20 02:18 49.874672 -118.397606 281 12016ft 167kts
27-May-20 02:19 49.880945 -118.469127 281 12009ft 167kts
27-May-20 02:20 49.887226 -118.540954 282 12001ft 168kts
27-May-20 02:21 49.893566 -118.613059 282 11997ft 168kts
27-May-20 02:22 49.899801 -118.685780 280 11839ft 177kts
27-May-20 02:23 49.906484 -118.763889 280 11276ft 188kts
27-May-20 02:24 49.913485 -118.846145 280 10333ft 195kts
27-May-20 02:25 49.920546 -118.929319 280 9088ft 193kts
27-May-20 02:26 49.927406 -119.010959 280 7862ft 190kts
27-May-20 02:27 49.933993 -119.091555 279 7016ft 179kts
27-May-20 02:28 49.939842 -119.167711 267 6988ft 182kts
27-May-20 02:29 49.906115 -119.227406 225 7024ft 187kts
27-May-20 02:30 49.869280 -119.283839 239 6771ft 184kts
27-May-20 02:31 49.868188 -119.359663 309 3886ft 160kts
27-May-20 02:32 49.900064 -119.370154 358 2602ft 105kts
27-May-20 02:33 49.928366 -119.374028 357 1819ft 98kts
27-May-20 02:34 49.953119 -119.377364 355 1415ft 75kts
27-May-20 02:35 49.965402 -119.379116 354 1413ft 23kts
27-May-20 02:36 49.966086 -119.380551 312 1413ft 5kts
27-May-20 02:37 49.968119 -119.381594 184 1413ft 4kts
27-May-20 02:38 49.967835 -119.381608 175 1413ft 0kts
27-May-20 02:39 49.967835 -119.381608 175 1413ft 0kts

Navigation Log

Ident Type
Flight plan parsing failed, navigation log unavailable